^^
Grace C. Lehan Memorial Weather Station Historical Data
Daily Summary for May 3, 2022 Units:  Both    English   Metric
Daily Weekly Monthly Yearly
  High: Low: Average:
Temperature: 69.6 °F /  20.9 °C 39.9 °F /  4.4 °C 56 °F /  13.3 °C
Dew Point: 49.7 °F /  9.8 °C 37.5 °F /  3.1 °C 45.5 °F /  7.5 °C
Humidity: 93.6% 45% 70%
Wind Speed: 1.3mph /  2.1km/h - 0.1mph /  0.2km/h
Wind Gust: 6mph /  9.7km/h - -
Wind- - SSE
Pressure: 30.41 in /  1029.7 hPa 30.29 in /  1025.6 hPa -
Precipitation: 0.00 in /  0 mm    
 
 
Tabular Data for May 3, 2022
Time Temperature Dew Point Pressure Wind Wind Speed Wind Gust Humidity Rainfall Rate (Hourly) solar
00:09 48 °F /  8.9 °C 41.5 °F /  5.3 °C 30.33in /  1027hPa Calm     78.1% 0.00in /  0mm 0 W/m2
00:14 47.7 °F /  8.7 °C 41.5 °F /  5.3 °C 30.32in /  1026.6hPa Calm     79% 0.00in /  0mm 0 W/m2
00:19 47.5 °F /  8.6 °C 41.3 °F /  5.2 °C 30.32in /  1026.6hPa Calm     79% 0.00in /  0mm 0 W/m2
00:24 47.3 °F /  8.5 °C 41.1 °F /  5.1 °C 30.33in /  1027hPa Calm     79% 0.00in /  0mm 0 W/m2
00:29 47.1 °F /  8.4 °C 41.1 °F /  5.1 °C 30.32in /  1026.6hPa Calm     79.4% 0.00in /  0mm 0 W/m2
00:34 46.9 °F /  8.3 °C 41.2 °F /  5.1 °C 30.33in /  1027hPa Calm     80.2% 0.00in /  0mm 0 W/m2
00:39 46.7 °F /  8.2 °C 41.2 °F /  5.1 °C 30.32in /  1026.6hPa Calm     81% 0.00in /  0mm 0 W/m2
00:44 46.6 °F /  8.1 °C 41.2 °F /  5.1 °C 30.33in /  1027hPa Calm     81.5% 0.00in /  0mm 0 W/m2
00:49 46.5 °F /  8.1 °C 41.3 °F /  5.2 °C 30.33in /  1027hPa Calm     82% 0.00in /  0mm 0 W/m2
00:54 46.4 °F /  8 °C 41.2 °F /  5.1 °C 30.33in /  1027hPa Calm     82% 0.00in /  0mm 0 W/m2
00:59 46.4 °F /  8 °C 41.5 °F /  5.3 °C 30.33in /  1027hPa Calm     82.9% 0.00in /  0mm 0 W/m2
01:04 46.3 °F /  7.9 °C 41.4 °F /  5.2 °C 30.33in /  1027hPa Calm     83% 0.00in /  0mm 0 W/m2
01:09 46.2 °F /  7.9 °C 41.3 °F /  5.2 °C 30.33in /  1027hPa Calm     83% 0.00in /  0mm 0 W/m2
01:14 46.1 °F /  7.8 °C 41.2 °F /  5.1 °C 30.33in /  1027hPa Calm     83% 0.00in /  0mm 0 W/m2
01:19 45.9 °F /  7.7 °C 41.1 °F /  5.1 °C 30.33in /  1027hPa Calm     83% 0.00in /  0mm 0 W/m2
01:24 45.8 °F /  7.7 °C 40.9 °F /  4.9 °C 30.33in /  1027hPa Calm     83% 0.00in /  0mm 0 W/m2
01:29 45.6 °F /  7.6 °C 40.8 °F /  4.9 °C 30.33in /  1027hPa Calm     83% 0.00in /  0mm 0 W/m2
01:34 45.6 °F /  7.6 °C 41 °F /  5 °C 30.33in /  1027hPa Calm     83.9% 0.00in /  0mm 0 W/m2
01:39 45.5 °F /  7.5 °C 40.8 °F /  4.9 °C 30.34in /  1027.3hPa Calm     83.6% 0.00in /  0mm 0 W/m2
01:44 45.3 °F /  7.4 °C 40.6 °F /  4.8 °C 30.34in /  1027.3hPa Calm     83.4% 0.00in /  0mm 0 W/m2
01:49 45.2 °F /  7.3 °C 40.6 °F /  4.8 °C 30.34in /  1027.3hPa Calm     84% 0.00in /  0mm 0 W/m2
01:54 45.1 °F /  7.3 °C 40.7 °F /  4.8 °C 30.34in /  1027.3hPa Calm     84.5% 0.00in /  0mm 0 W/m2
01:59 45.1 °F /  7.3 °C 40.9 °F /  4.9 °C 30.34in /  1027.3hPa Calm     85% 0.00in /  0mm 0 W/m2
02:04 45.1 °F /  7.3 °C 40.9 °F /  4.9 °C 30.34in /  1027.3hPa Calm     85% 0.00in /  0mm 0 W/m2
02:09 45.1 °F /  7.3 °C 41.1 °F /  5.1 °C 30.34in /  1027.3hPa Calm     85.6% 0.00in /  0mm 0 W/m2
02:14 45.2 °F /  7.3 °C 41.3 °F /  5.2 °C 30.34in /  1027.3hPa Calm     86% 0.00in /  0mm 0 W/m2
02:19 45.2 °F /  7.3 °C 41.3 °F /  5.2 °C 30.34in /  1027.3hPa Calm     86% 0.00in /  0mm 0 W/m2
02:24 45.2 °F /  7.3 °C 41.3 °F /  5.2 °C 30.34in /  1027.3hPa Calm     86% 0.00in /  0mm 0 W/m2
02:29 45.1 °F /  7.3 °C 41.2 °F /  5.1 °C 30.34in /  1027.3hPa Calm     86% 0.00in /  0mm 0 W/m2
02:34 45 °F /  7.2 °C 41.1 °F /  5.1 °C 30.35in /  1027.7hPa Calm     86% 0.00in /  0mm 0 W/m2
02:39 44.8 °F /  7.1 °C 40.9 °F /  4.9 °C 30.35in /  1027.7hPa Calm     86% 0.00in /  0mm 0 W/m2
02:44 44.6 °F /  7 °C 40.7 °F /  4.8 °C 30.35in /  1027.7hPa Calm     86% 0.00in /  0mm 0 W/m2
02:49 44.5 °F /  6.9 °C 40.5 °F /  4.7 °C 30.35in /  1027.7hPa Calm     86% 0.00in /  0mm 0 W/m2
02:54 44.3 °F /  6.8 °C 40.4 °F /  4.7 °C 30.35in /  1027.7hPa Calm     86% 0.00in /  0mm 0 W/m2
02:59 44.3 °F /  6.8 °C 40.5 °F /  4.7 °C 30.35in /  1027.7hPa Calm     86.7% 0.00in /  0mm 0 W/m2
03:04 44.2 °F /  6.8 °C 40.6 °F /  4.8 °C 30.35in /  1027.7hPa Calm     87% 0.00in /  0mm 0 W/m2
03:09 44.1 °F /  6.7 °C 40.5 °F /  4.7 °C 30.35in /  1027.7hPa Calm     87% 0.00in /  0mm 0 W/m2
03:14 44 °F /  6.7 °C 40.4 °F /  4.7 °C 30.35in /  1027.7hPa Calm     87% 0.00in /  0mm 0 W/m2
03:19 43.9 °F /  6.6 °C 40.3 °F /  4.6 °C 30.35in /  1027.7hPa Calm     87% 0.00in /  0mm 0 W/m2
03:24 43.8 °F /  6.6 °C 40.2 °F /  4.6 °C 30.35in /  1027.7hPa Calm     87% 0.00in /  0mm 0 W/m2
03:29 43.6 °F /  6.4 °C 40 °F /  4.4 °C 30.35in /  1027.7hPa Calm     87% 0.00in /  0mm 0 W/m2
03:34 43.4 °F /  6.3 °C 39.8 °F /  4.3 °C 30.35in /  1027.7hPa Calm     87% 0.00in /  0mm 0 W/m2
03:39 43.3 °F /  6.3 °C 39.9 °F /  4.4 °C 30.35in /  1027.7hPa Calm     87.5% 0.00in /  0mm 0 W/m2
03:44 43.4 °F /  6.3 °C 40.1 °F /  4.5 °C 30.35in /  1027.7hPa Calm     88% 0.00in /  0mm 0 W/m2
03:49 43.5 °F /  6.4 °C 40.2 °F /  4.6 °C 30.35in /  1027.7hPa Calm     88.1% 0.00in /  0mm 0 W/m2
03:54 43.5 °F /  6.4 °C 40.5 °F /  4.7 °C 30.35in /  1027.7hPa Calm     89% 0.00in /  0mm 0 W/m2
03:59 43.5 °F /  6.4 °C 40.3 °F /  4.6 °C 30.35in /  1027.7hPa Calm     88.5% 0.00in /  0mm 0 W/m2
04:00 43.5 °F /  6.4 °C 40.2 °F /  4.6 °C 30.35in /  1027.7hPa Calm     88% 0.00in /  0mm 0 W/m2
04:09 43.4 °F /  6.3 °C 40.1 °F /  4.5 °C 30.35in /  1027.7hPa Calm     88% 0.00in /  0mm 0 W/m2
04:14 43.3 °F /  6.3 °C 40 °F /  4.4 °C 30.35in /  1027.7hPa Calm     88% 0.00in /  0mm 0 W/m2
04:19 43.2 °F /  6.2 °C 39.8 °F /  4.3 °C 30.36in /  1028hPa Calm     88% 0.00in /  0mm 0 W/m2
04:30 42.9 °F /  6.1 °C 39.9 °F /  4.4 °C 30.36in /  1028hPa Calm     89% 0.00in /  0mm 0 W/m2
05:30 42.3 °F /  5.7 °C 39.3 °F /  4.1 °C 30.37in /  1028.3hPa Calm     89% 0.00in /  0mm 0 W/m2
06:00 41.5 °F /  5.3 °C 38.5 °F /  3.6 °C 30.37in /  1028.3hPa Calm     89% 0.00in /  0mm 0 W/m2
06:30 40.7 °F /  4.8 °C 38 °F /  3.3 °C 30.38in /  1028.7hPa Calm     90% 0.00in /  0mm 0 W/m2
07:00 40.2 °F /  4.6 °C 37.8 °F /  3.2 °C 30.38in /  1028.7hPa Calm     91% 0.00in /  0mm 0 W/m2
07:30 39.9 °F /  4.4 °C 37.5 °F /  3.1 °C 30.39in /  1029hPa Calm     91% 0.00in /  0mm 0 W/m2
08:04 40.9 °F /  4.9 °C 38.9 °F /  3.8 °C 30.39in /  1029hPa Calm     92.5% 0.00in /  0mm 32 W/m2
08:09 41.1 °F /  5.1 °C 39.2 °F /  4 °C 30.40in /  1029.3hPa Calm     93% 0.00in /  0mm 54 W/m2
08:14 41.4 °F /  5.2 °C 39.5 °F /  4.2 °C 30.40in /  1029.3hPa Calm     93% 0.00in /  0mm 105 W/m2
08:19 41.9 °F /  5.5 °C 40.1 °F /  4.5 °C 30.41in /  1029.7hPa Calm     93.3% 0.00in /  0mm 54 W/m2
08:24 42.5 °F /  5.8 °C 40.8 °F /  4.9 °C 30.41in /  1029.7hPa Calm     93.6% 0.00in /  0mm 69 W/m2
08:29 43 °F /  6.1 °C 41.3 °F /  5.2 °C 30.41in /  1029.7hPa Calm     93.5% 0.00in /  0mm 156 W/m2
08:34 43.6 °F /  6.4 °C 41.8 °F /  5.4 °C 30.41in /  1029.7hPa Calm     93.3% 0.00in /  0mm 193 W/m2
08:39 44.5 °F /  6.9 °C 42.7 °F /  5.9 °C 30.41in /  1029.7hPa Calm     93.5% 0.00in /  0mm 207 W/m2
08:44 45.5 °F /  7.5 °C 43.6 °F /  6.4 °C 30.41in /  1029.7hPa Calm     92.8% 0.00in /  0mm 221 W/m2
08:49 46.7 °F /  8.2 °C 44.3 °F /  6.8 °C 30.41in /  1029.7hPa Calm     91.5% 0.00in /  0mm 239 W/m2
08:54 47.7 °F /  8.7 °C 44.6 °F /  7 °C 30.41in /  1029.7hPa Calm     89% 0.00in /  0mm 253 W/m2
08:59 48.9 °F /  9.4 °C 44.7 °F /  7.1 °C 30.41in /  1029.7hPa Calm     85.4% 0.00in /  0mm 253 W/m2
09:04 50 °F /  10 °C 44.5 °F /  6.9 °C 30.41in /  1029.7hPa Calm     81.5% 0.00in /  0mm 276 W/m2
09:09 50.6 °F /  10.3 °C 43.9 °F /  6.6 °C 30.41in /  1029.7hPa Calm     77.8% 0.00in /  0mm 290 W/m2
09:14 51.2 °F /  10.7 °C 44.2 °F /  6.8 °C 30.41in /  1029.7hPa Calm     76.7% 0.00in /  0mm 301 W/m2
09:19 51.9 °F /  11.1 °C 43.9 °F /  6.6 °C 30.41in /  1029.7hPa Calm   1mph /  1.6km/h 74% 0.00in /  0mm 316 W/m2
09:24 52.3 °F /  11.3 °C 43.3 °F /  6.3 °C 30.41in /  1029.7hPa Calm   1mph /  1.6km/h 71.4% 0.00in /  0mm 329 W/m2
09:29 52.7 °F /  11.5 °C 43.6 °F /  6.4 °C 30.41in /  1029.7hPa Calm   1mph /  1.6km/h 70.9% 0.00in /  0mm 343 W/m2
09:34 53.2 °F /  11.8 °C 42.9 °F /  6.1 °C 30.41in /  1029.7hPa Calm   1mph /  1.6km/h 67.8% 0.00in /  0mm 353 W/m2
09:39 53.4 °F /  11.9 °C 42.9 °F /  6.1 °C 30.41in /  1029.7hPa ENE 0.1mph /  0.2km/h 1mph /  1.6km/h 67.4% 0.00in /  0mm 369 W/m2
09:44 53.7 °F /  12.1 °C 42.9 °F /  6.1 °C 30.41in /  1029.7hPa Calm   1mph /  1.6km/h 66.7% 0.00in /  0mm 381 W/m2
09:49 54 °F /  12.2 °C 42.8 °F /  6 °C 30.41in /  1029.7hPa ENE 0.3mph /  0.5km/h 2mph /  3.2km/h 65.8% 0.00in /  0mm 390 W/m2
09:54 53.9 °F /  12.2 °C 42.5 °F /  5.8 °C 30.41in /  1029.7hPa Calm   2mph /  3.2km/h 65.2% 0.00in /  0mm 399 W/m2
09:59 54.1 °F /  12.3 °C 43.1 °F /  6.2 °C 30.41in /  1029.7hPa Calm   2mph /  3.2km/h 66.1% 0.00in /  0mm 411 W/m2
10:04 54.6 °F /  12.6 °C 43.2 °F /  6.2 °C 30.41in /  1029.7hPa Calm   2mph /  3.2km/h 65.1% 0.00in /  0mm 427 W/m2
10:09 55.1 °F /  12.8 °C 43.2 °F /  6.2 °C 30.41in /  1029.7hPa Calm   1mph /  1.6km/h 64.1% 0.00in /  0mm 438 W/m2
10:14 55.7 °F /  13.2 °C 43.5 °F /  6.4 °C 30.41in /  1029.7hPa Calm   1mph /  1.6km/h 63.4% 0.00in /  0mm 446 W/m2
10:19 56.4 °F /  13.6 °C 43.6 °F /  6.4 °C 30.41in /  1029.7hPa Calm   1mph /  1.6km/h 62.1% 0.00in /  0mm 439 W/m2
10:24 56.8 °F /  13.8 °C 43.6 °F /  6.4 °C 30.41in /  1029.7hPa Calm   1mph /  1.6km/h 61.4% 0.00in /  0mm 183 W/m2
10:29 56.6 °F /  13.7 °C 42.9 °F /  6.1 °C 30.41in /  1029.7hPa Calm   1mph /  1.6km/h 60% 0.00in /  0mm 475 W/m2
10:34 56.3 °F /  13.5 °C 42.8 °F /  6 °C 30.41in /  1029.7hPa Calm   1mph /  1.6km/h 60.4% 0.00in /  0mm 487 W/m2
10:39 56.3 °F /  13.5 °C 42.6 °F /  5.9 °C 30.41in /  1029.7hPa Calm   1mph /  1.6km/h 59.8% 0.00in /  0mm 497 W/m2
10:44 56.7 °F /  13.7 °C 43.1 °F /  6.2 °C 30.41in /  1029.7hPa Calm   1mph /  1.6km/h 60.2% 0.00in /  0mm 508 W/m2
10:49 57.4 °F /  14.1 °C 43.4 °F /  6.3 °C 30.41in /  1029.7hPa Calm   1mph /  1.6km/h 59.6% 0.00in /  0mm 517 W/m2
10:54 57.8 °F /  14.3 °C 43 °F /  6.1 °C 30.40in /  1029.3hPa Calm   1mph /  1.6km/h 57.6% 0.00in /  0mm 520 W/m2
10:59 58.1 °F /  14.5 °C 44.1 °F /  6.7 °C 30.40in /  1029.3hPa Calm   1mph /  1.6km/h 59.5% 0.00in /  0mm 425 W/m2
11:04 58.4 °F /  14.7 °C 43.9 °F /  6.6 °C 30.40in /  1029.3hPa Calm   1mph /  1.6km/h 58.5% 0.00in /  0mm 454 W/m2
11:09 58.6 °F /  14.8 °C 44.1 °F /  6.7 °C 30.39in /  1029hPa Calm     58.5% 0.00in /  0mm 538 W/m2
11:14 58.9 °F /  14.9 °C 44.8 °F /  7.1 °C 30.39in /  1029hPa Calm     59.4% 0.00in /  0mm 543 W/m2
11:19 59.6 °F /  15.3 °C 45 °F /  7.2 °C 30.39in /  1029hPa Calm     58.5% 0.00in /  0mm 552 W/m2
11:24 60.3 °F /  15.7 °C 45 °F /  7.2 °C 30.39in /  1029hPa Calm     57% 0.00in /  0mm 555 W/m2
11:29 61 °F /  16.1 °C 45.8 °F /  7.7 °C 30.39in /  1029hPa Calm     57.2% 0.00in /  0mm 561 W/m2
11:34 61.7 °F /  16.5 °C 46.9 °F /  8.3 °C 30.39in /  1029hPa Calm     58.2% 0.00in /  0mm 568 W/m2
11:39 62.2 °F /  16.8 °C 46.5 °F /  8.1 °C 30.39in /  1029hPa Calm     56.4% 0.00in /  0mm 568 W/m2
11:44 62.5 °F /  16.9 °C 46.8 °F /  8.2 °C 30.39in /  1029hPa Calm     56.5% 0.00in /  0mm 378 W/m2
11:49 62.6 °F /  17 °C 47.1 °F /  8.4 °C 30.39in /  1029hPa Calm     56.9% 0.00in /  0mm 461 W/m2
11:54 62.5 °F /  16.9 °C 47.3 °F /  8.5 °C 30.38in /  1028.7hPa Calm     57.3% 0.00in /  0mm 461 W/m2
11:58 62.2 °F /  16.8 °C 46.9 °F /  8.3 °C 30.38in /  1028.7hPa Calm     57.3% 0.00in /  0mm 100 W/m2
12:04 61.9 °F /  16.6 °C 48 °F /  8.9 °C 30.38in /  1028.7hPa Calm     60.2% 0.00in /  0mm 172 W/m2
12:09 62 °F /  16.7 °C 48.4 °F /  9.1 °C 30.38in /  1028.7hPa ENE 0.5mph /  0.8km/h 4mph /  6.4km/h 61.1% 0.00in /  0mm 320 W/m2
12:14 62.3 °F /  16.8 °C 48.6 °F /  9.2 °C 30.37in /  1028.3hPa Calm   4mph /  6.4km/h 60.8% 0.00in /  0mm 167 W/m2
12:19 62.8 °F /  17.1 °C 49.1 °F /  9.5 °C 30.37in /  1028.3hPa ENE 0.2mph /  0.3km/h 4mph /  6.4km/h 61% 0.00in /  0mm 190 W/m2
12:24 63.3 °F /  17.4 °C 48.9 °F /  9.4 °C 30.37in /  1028.3hPa ENE 0.6mph /  1km/h 4mph /  6.4km/h 59.4% 0.00in /  0mm 116 W/m2
12:29 63.5 °F /  17.5 °C 48.4 °F /  9.1 °C 30.37in /  1028.3hPa East 0.3mph /  0.5km/h 4mph /  6.4km/h 57.8% 0.00in /  0mm 341 W/m2
12:34 63.6 °F /  17.6 °C 48.6 °F /  9.2 °C 30.36in /  1028hPa East 0.4mph /  0.6km/h 5mph /  8km/h 58.1% 0.00in /  0mm 83 W/m2
12:39 63.7 °F /  17.6 °C 48.1 °F /  8.9 °C 30.36in /  1028hPa East 0.4mph /  0.6km/h 5mph /  8km/h 56.8% 0.00in /  0mm 188 W/m2
12:44 64 °F /  17.8 °C 48.2 °F /  9 °C 30.36in /  1028hPa ESE 0.9mph /  1.4km/h 5mph /  8km/h 56.4% 0.00in /  0mm 132 W/m2
12:49 64.4 °F /  18 °C 48.2 °F /  9 °C 30.35in /  1027.7hPa ESE 0.2mph /  0.3km/h 5mph /  8km/h 55.5% 0.00in /  0mm 199 W/m2
12:54 64.7 °F /  18.2 °C 48.3 °F /  9.1 °C 30.35in /  1027.7hPa ESE 0.2mph /  0.3km/h 5mph /  8km/h 55.3% 0.00in /  0mm 102 W/m2
12:59 65 °F /  18.3 °C 48.5 °F /  9.2 °C 30.35in /  1027.7hPa ESE 0.1mph /  0.2km/h 5mph /  8km/h 55% 0.00in /  0mm 483 W/m2
13:04 65.2 °F /  18.4 °C 48.7 °F /  9.3 °C 30.34in /  1027.3hPa SE 0.2mph /  0.3km/h 5mph /  8km/h 55.1% 0.00in /  0mm 490 W/m2
13:09 65.4 °F /  18.6 °C 48.9 °F /  9.4 °C 30.34in /  1027.3hPa SE 0.1mph /  0.2km/h 3mph /  4.8km/h 55% 0.00in /  0mm 348 W/m2
13:14 65.7 °F /  18.7 °C 49.1 °F /  9.5 °C 30.34in /  1027.3hPa SE 0.1mph /  0.2km/h 3mph /  4.8km/h 55.1% 0.00in /  0mm 341 W/m2
13:19 65.9 °F /  18.8 °C 48.9 °F /  9.4 °C 30.34in /  1027.3hPa Calm   3mph /  4.8km/h 54.2% 0.00in /  0mm 415 W/m2
13:24 66.4 °F /  19.1 °C 48.8 °F /  9.3 °C 30.34in /  1027.3hPa Calm   3mph /  4.8km/h 53.2% 0.00in /  0mm 589 W/m2
13:29 66.9 °F /  19.4 °C 49.5 °F /  9.7 °C 30.33in /  1027hPa Calm   3mph /  4.8km/h 53.5% 0.00in /  0mm 552 W/m2
13:34 67.3 °F /  19.6 °C 49.1 °F /  9.5 °C 30.33in /  1027hPa SE 0.2mph /  0.3km/h 3mph /  4.8km/h 52.1% 0.00in /  0mm 441 W/m2
13:39 67.6 °F /  19.8 °C 49.3 °F /  9.6 °C 30.33in /  1027hPa Calm   2mph /  3.2km/h 51.9% 0.00in /  0mm 227 W/m2
13:44 67.9 °F /  19.9 °C 49.7 °F /  9.8 °C 30.33in /  1027hPa Calm   2mph /  3.2km/h 52.1% 0.00in /  0mm 306 W/m2
13:49 68.1 °F /  20.1 °C 49.6 °F /  9.8 °C 30.33in /  1027hPa Calm   2mph /  3.2km/h 51.5% 0.00in /  0mm 390 W/m2
13:54 68.3 °F /  20.2 °C 49 °F /  9.4 °C 30.33in /  1027hPa SE 0.1mph /  0.2km/h 2mph /  3.2km/h 50% 0.00in /  0mm 313 W/m2
13:59 68.7 °F /  20.4 °C 49.3 °F /  9.6 °C 30.32in /  1026.6hPa WSW 0.1mph /  0.2km/h 3mph /  4.8km/h 49.9% 0.00in /  0mm 417 W/m2
14:04 69 °F /  20.6 °C 48.8 °F /  9.3 °C 30.32in /  1026.6hPa Calm   3mph /  4.8km/h 48.4% 0.00in /  0mm 362 W/m2
14:09 69.2 °F /  20.7 °C 49.2 °F /  9.6 °C 30.32in /  1026.6hPa WSW 0.3mph /  0.5km/h 2mph /  3.2km/h 48.8% 0.00in /  0mm 211 W/m2
14:14 69.5 °F /  20.8 °C 49 °F /  9.4 °C 30.32in /  1026.6hPa Calm   2mph /  3.2km/h 48.1% 0.00in /  0mm 192 W/m2
14:19 69.5 °F /  20.8 °C 48.3 °F /  9.1 °C 30.32in /  1026.6hPa SW 0.9mph /  1.4km/h 3mph /  4.8km/h 46.8% 0.00in /  0mm 265 W/m2
14:24 69.3 °F /  20.7 °C 48 °F /  8.9 °C 30.32in /  1026.6hPa SSW 0.2mph /  0.3km/h 3mph /  4.8km/h 46.7% 0.00in /  0mm 262 W/m2
14:29 69.2 °F /  20.7 °C 48.7 °F /  9.3 °C 30.32in /  1026.6hPa SSW 0.1mph /  0.2km/h 3mph /  4.8km/h 48% 0.00in /  0mm 183 W/m2
14:34 69.4 °F /  20.8 °C 48.4 °F /  9.1 °C 30.32in /  1026.6hPa SSW 0.1mph /  0.2km/h 3mph /  4.8km/h 47.1% 0.00in /  0mm 494 W/m2
14:39 69.5 °F /  20.8 °C 48.1 °F /  8.9 °C 30.32in /  1026.6hPa SSW 0.1mph /  0.2km/h 2mph /  3.2km/h 46.4% 0.00in /  0mm 494 W/m2
14:44 69.6 °F /  20.9 °C 48.1 °F /  8.9 °C 30.32in /  1026.6hPa SSW 0.2mph /  0.3km/h 3mph /  4.8km/h 46.3% 0.00in /  0mm 330 W/m2
14:49 69.4 °F /  20.8 °C 48 °F /  8.9 °C 30.32in /  1026.6hPa SSW 0.1mph /  0.2km/h 4mph /  6.4km/h 46.4% 0.00in /  0mm 72 W/m2
14:54 69.4 °F /  20.8 °C 48.3 °F /  9.1 °C 30.32in /  1026.6hPa Calm   4mph /  6.4km/h 47% 0.00in /  0mm 83 W/m2
14:59 69.5 °F /  20.8 °C 48.4 °F /  9.1 °C 30.32in /  1026.6hPa Calm   4mph /  6.4km/h 47% 0.00in /  0mm 49 W/m2
15:04 69.5 °F /  20.8 °C 48.4 °F /  9.1 °C 30.31in /  1026.3hPa SSW 0.1mph /  0.2km/h 4mph /  6.4km/h 46.9% 0.00in /  0mm 151 W/m2
15:09 69.4 °F /  20.8 °C 47.9 °F /  8.8 °C 30.31in /  1026.3hPa Calm   1mph /  1.6km/h 46.3% 0.00in /  0mm 141 W/m2
15:14 69.3 °F /  20.7 °C 48.5 °F /  9.2 °C 30.31in /  1026.3hPa SSW 0.4mph /  0.6km/h 3mph /  4.8km/h 47.3% 0.00in /  0mm 290 W/m2
15:19 69.3 °F /  20.7 °C 48.2 °F /  9 °C 30.31in /  1026.3hPa SSW 0.1mph /  0.2km/h 3mph /  4.8km/h 47% 0.00in /  0mm 258 W/m2
15:24 69.5 °F /  20.8 °C 48.2 °F /  9 °C 30.31in /  1026.3hPa SSW 0.2mph /  0.3km/h 3mph /  4.8km/h 46.7% 0.00in /  0mm 392 W/m2
15:29 69.5 °F /  20.8 °C 48.1 °F /  8.9 °C 30.31in /  1026.3hPa South 0.6mph /  1km/h 4mph /  6.4km/h 46.5% 0.00in /  0mm 287 W/m2
15:34 69.3 °F /  20.7 °C 47.3 °F /  8.5 °C 30.31in /  1026.3hPa South 0.4mph /  0.6km/h 4mph /  6.4km/h 45.3% 0.00in /  0mm 199 W/m2
15:39 69 °F /  20.6 °C 46.8 °F /  8.2 °C 30.31in /  1026.3hPa South 0.7mph /  1.1km/h 4mph /  6.4km/h 45% 0.00in /  0mm 32 W/m2
15:44 68.6 °F /  20.3 °C 46.8 °F /  8.2 °C 30.31in /  1026.3hPa South 0.8mph /  1.3km/h 4mph /  6.4km/h 45.6% 0.00in /  0mm 30 W/m2
15:49 68.3 °F /  20.2 °C 46.7 °F /  8.2 °C 30.31in /  1026.3hPa South 0.5mph /  0.8km/h 4mph /  6.4km/h 45.8% 0.00in /  0mm 28 W/m2
15:54 68.1 °F /  20.1 °C 46.5 °F /  8.1 °C 30.31in /  1026.3hPa SSE 0.2mph /  0.3km/h 4mph /  6.4km/h 46% 0.00in /  0mm 26 W/m2
15:59 67.9 °F /  19.9 °C 46.4 °F /  8 °C 30.31in /  1026.3hPa SSE 0.3mph /  0.5km/h 4mph /  6.4km/h 46% 0.00in /  0mm 26 W/m2
16:00 67.8 °F /  19.9 °C 46.3 °F /  7.9 °C 30.31in /  1026.3hPa Calm   4mph /  6.4km/h 46% 0.00in /  0mm 25 W/m2
16:09 67.7 °F /  19.8 °C 46.9 °F /  8.3 °C 30.30in /  1026hPa SSE 0.2mph /  0.3km/h 2mph /  3.2km/h 47.3% 0.00in /  0mm 25 W/m2
16:14 67.7 °F /  19.8 °C 46.7 °F /  8.2 °C 30.30in /  1026hPa SSE 0.6mph /  1km/h 3mph /  4.8km/h 46.9% 0.00in /  0mm 23 W/m2
16:19 67.5 °F /  19.7 °C 46.2 °F /  7.9 °C 30.30in /  1026hPa SSE 1.3mph /  2.1km/h 4mph /  6.4km/h 46.4% 0.00in /  0mm 23 W/m2
16:24 67.3 °F /  19.6 °C 46.3 °F /  7.9 °C 30.30in /  1026hPa SSE 1.3mph /  2.1km/h 5mph /  8km/h 46.9% 0.00in /  0mm 21 W/m2
16:29 67.2 °F /  19.6 °C 46.8 °F /  8.2 °C 30.31in /  1026.3hPa SSE 0.7mph /  1.1km/h 5mph /  8km/h 47.9% 0.00in /  0mm 21 W/m2
16:34 67.1 °F /  19.5 °C 46.8 °F /  8.2 °C 30.30in /  1026hPa SSE 0.7mph /  1.1km/h 5mph /  8km/h 48% 0.00in /  0mm 21 W/m2
16:39 67 °F /  19.4 °C 47.1 °F /  8.4 °C 30.30in /  1026hPa SSE 0.2mph /  0.3km/h 2mph /  3.2km/h 48.8% 0.00in /  0mm 19 W/m2
16:44 66.8 °F /  19.3 °C 47.1 °F /  8.4 °C 30.30in /  1026hPa SSE 0.9mph /  1.4km/h 3mph /  4.8km/h 49% 0.00in /  0mm 19 W/m2
16:49 66.7 °F /  19.3 °C 47 °F /  8.3 °C 30.30in /  1026hPa SSE 1.1mph /  1.8km/h 6mph /  9.7km/h 49.1% 0.00in /  0mm 18 W/m2
16:54 66.6 °F /  19.2 °C 47.4 °F /  8.6 °C 30.30in /  1026hPa SSE 0.1mph /  0.2km/h 6mph /  9.7km/h 49.9% 0.00in /  0mm 16 W/m2
16:59 66.4 °F /  19.1 °C 47.6 °F /  8.7 °C 30.30in /  1026hPa SSE 0.1mph /  0.2km/h 6mph /  9.7km/h 50.8% 0.00in /  0mm 16 W/m2
17:04 66.2 °F /  19 °C 47.6 °F /  8.7 °C 30.30in /  1026hPa SSE 0.1mph /  0.2km/h 6mph /  9.7km/h 51% 0.00in /  0mm 14 W/m2
17:09 66 °F /  18.9 °C 47.4 °F /  8.6 °C 30.30in /  1026hPa SSE 0.8mph /  1.3km/h 4mph /  6.4km/h 51% 0.00in /  0mm 14 W/m2
17:14 65.8 °F /  18.8 °C 47.5 °F /  8.6 °C 30.30in /  1026hPa South 0.1mph /  0.2km/h 4mph /  6.4km/h 51.5% 0.00in /  0mm 12 W/m2
17:19 65.6 °F /  18.7 °C 47.5 °F /  8.6 °C 30.30in /  1026hPa South 0.6mph /  1km/h 4mph /  6.4km/h 52% 0.00in /  0mm 11 W/m2
17:24 65.3 °F /  18.5 °C 47.2 °F /  8.4 °C 30.30in /  1026hPa South 0.3mph /  0.5km/h 4mph /  6.4km/h 51.8% 0.00in /  0mm 9 W/m2
17:29 65.1 °F /  18.4 °C 47.1 °F /  8.4 °C 30.30in /  1026hPa South 0.2mph /  0.3km/h 4mph /  6.4km/h 52% 0.00in /  0mm 7 W/m2
17:34 64.9 °F /  18.3 °C 47.3 °F /  8.5 °C 30.29in /  1025.6hPa South 0.3mph /  0.5km/h 4mph /  6.4km/h 52.9% 0.00in /  0mm 5 W/m2
17:39 64.6 °F /  18.1 °C 47.5 °F /  8.6 °C 30.29in /  1025.6hPa South 0.3mph /  0.5km/h 3mph /  4.8km/h 53.7% 0.00in /  0mm 0 W/m2
17:44 64.3 °F /  17.9 °C 47.4 °F /  8.6 °C 30.29in /  1025.6hPa South 0.4mph /  0.6km/h 3mph /  4.8km/h 54.2% 0.00in /  0mm 0 W/m2
17:49 64 °F /  17.8 °C 47.6 °F /  8.7 °C 30.30in /  1026hPa South 0.3mph /  0.5km/h 3mph /  4.8km/h 55.1% 0.00in /  0mm 0 W/m2
17:54 63.8 °F /  17.7 °C 48 °F /  8.9 °C 30.30in /  1026hPa South 0.2mph /  0.3km/h 3mph /  4.8km/h 56.4% 0.00in /  0mm 0 W/m2
17:59 63.5 °F /  17.5 °C 48 °F /  8.9 °C 30.30in /  1026hPa South 0.1mph /  0.2km/h 3mph /  4.8km/h 57% 0.00in /  0mm 0 W/m2
18:04 63.3 °F /  17.4 °C 48.2 °F /  9 °C 30.30in /  1026hPa Calm   3mph /  4.8km/h 57.9% 0.00in /  0mm 0 W/m2
18:09 63 °F /  17.2 °C 48.3 °F /  9.1 °C 30.30in /  1026hPa Calm     58.5% 0.00in /  0mm 0 W/m2
18:14 62.7 °F /  17.1 °C 48.3 °F /  9.1 °C 30.30in /  1026hPa South 0.1mph /  0.2km/h 2mph /  3.2km/h 59.2% 0.00in /  0mm 0 W/m2
18:19 62.4 °F /  16.9 °C 48.4 °F /  9.1 °C 30.30in /  1026hPa South 0.2mph /  0.3km/h 5mph /  8km/h 60.2% 0.00in /  0mm 0 W/m2
18:24 62.1 °F /  16.7 °C 48.5 °F /  9.2 °C 30.31in /  1026.3hPa South 0.2mph /  0.3km/h 5mph /  8km/h 61% 0.00in /  0mm 0 W/m2
18:29 61.9 °F /  16.6 °C 48.7 °F /  9.3 °C 30.31in /  1026.3hPa Calm   5mph /  8km/h 61.8% 0.00in /  0mm 0 W/m2
18:34 61.6 °F /  16.4 °C 48.6 °F /  9.2 °C 30.31in /  1026.3hPa Calm   5mph /  8km/h 62.3% 0.00in /  0mm 0 W/m2
18:39 61.4 °F /  16.3 °C 48.7 °F /  9.3 °C 30.31in /  1026.3hPa Calm     63.1% 0.00in /  0mm 0 W/m2
18:44 61.1 °F /  16.2 °C 48.9 °F /  9.4 °C 30.31in /  1026.3hPa Calm     64% 0.00in /  0mm 0 W/m2
18:49 60.9 °F /  16.1 °C 48.7 °F /  9.3 °C 30.31in /  1026.3hPa Calm     64.2% 0.00in /  0mm 0 W/m2
18:54 60.7 °F /  15.9 °C 48.9 °F /  9.4 °C 30.31in /  1026.3hPa Calm     65% 0.00in /  0mm 0 W/m2
18:59 60.5 °F /  15.8 °C 48.8 °F /  9.3 °C 30.31in /  1026.3hPa Calm     65.3% 0.00in /  0mm 0 W/m2
19:04 60.3 °F /  15.7 °C 48.9 °F /  9.4 °C 30.31in /  1026.3hPa Calm     66% 0.00in /  0mm 0 W/m2
19:09 60.1 °F /  15.6 °C 48.7 °F /  9.3 °C 30.32in /  1026.6hPa Calm     66% 0.00in /  0mm 0 W/m2
19:14 59.9 °F /  15.5 °C 48.6 °F /  9.2 °C 30.32in /  1026.6hPa Calm   1mph /  1.6km/h 66.1% 0.00in /  0mm 0 W/m2
19:19 59.8 °F /  15.4 °C 48.8 °F /  9.3 °C 30.32in /  1026.6hPa Calm   1mph /  1.6km/h 67% 0.00in /  0mm 0 W/m2
19:24 59.6 °F /  15.3 °C 48.7 °F /  9.3 °C 30.32in /  1026.6hPa South 0.1mph /  0.2km/h 2mph /  3.2km/h 67% 0.00in /  0mm 0 W/m2
19:29 59.5 °F /  15.3 °C 48.5 °F /  9.2 °C 30.32in /  1026.6hPa Calm   2mph /  3.2km/h 67% 0.00in /  0mm 0 W/m2
19:34 59.3 °F /  15.2 °C 48.3 °F /  9.1 °C 30.32in /  1026.6hPa Calm   2mph /  3.2km/h 67% 0.00in /  0mm 0 W/m2
19:39 59.1 °F /  15.1 °C 48.5 °F /  9.2 °C 30.32in /  1026.6hPa Calm     68% 0.00in /  0mm 0 W/m2
19:44 58.8 °F /  14.9 °C 48.3 °F /  9.1 °C 30.32in /  1026.6hPa Calm     68% 0.00in /  0mm 0 W/m2
19:49 58.6 °F /  14.8 °C 48.1 °F /  8.9 °C 30.32in /  1026.6hPa Calm     68% 0.00in /  0mm 0 W/m2
19:54 58.4 °F /  14.7 °C 48.2 °F /  9 °C 30.32in /  1026.6hPa Calm     68.8% 0.00in /  0mm 0 W/m2
19:59 58.2 °F /  14.6 °C 48.1 °F /  8.9 °C 30.32in /  1026.6hPa Calm     69% 0.00in /  0mm 0 W/m2
20:00 58.1 °F /  14.5 °C 48 °F /  8.9 °C 30.32in /  1026.6hPa Calm     69% 0.00in /  0mm 0 W/m2
20:09 57.7 °F /  14.3 °C 48 °F /  8.9 °C 30.32in /  1026.6hPa Calm     70% 0.00in /  0mm 0 W/m2
20:14 57.5 °F /  14.2 °C 47.8 °F /  8.8 °C 30.32in /  1026.6hPa Calm     70.1% 0.00in /  0mm 0 W/m2
20:19 57.3 °F /  14.1 °C 48 °F /  8.9 °C 30.32in /  1026.6hPa Calm     71% 0.00in /  0mm 0 W/m2
20:24 57.1 °F /  13.9 °C 47.8 °F /  8.8 °C 30.32in /  1026.6hPa Calm     71% 0.00in /  0mm 0 W/m2
20:29 56.8 °F /  13.8 °C 47.8 °F /  8.8 °C 30.32in /  1026.6hPa Calm     71.7% 0.00in /  0mm 0 W/m2
20:34 56.5 °F /  13.6 °C 47.6 °F /  8.7 °C 30.32in /  1026.6hPa Calm     72% 0.00in /  0mm 0 W/m2
20:39 56.2 °F /  13.4 °C 47.7 °F /  8.7 °C 30.32in /  1026.6hPa Calm     73.2% 0.00in /  0mm 0 W/m2
20:44 55.9 °F /  13.3 °C 47.8 °F /  8.8 °C 30.32in /  1026.6hPa Calm     74% 0.00in /  0mm 0 W/m2
20:49 55.7 °F /  13.2 °C 47.8 °F /  8.8 °C 30.32in /  1026.6hPa Calm     74.9% 0.00in /  0mm 0 W/m2
20:54 55.4 °F /  13 °C 47.9 °F /  8.8 °C 30.33in /  1027hPa Calm     75.6% 0.00in /  0mm 0 W/m2
20:59 55.2 °F /  12.9 °C 47.8 °F /  8.8 °C 30.33in /  1027hPa Calm     76% 0.00in /  0mm 0 W/m2
21:04 54.9 °F /  12.7 °C 47.8 °F /  8.8 °C 30.33in /  1027hPa Calm     76.7% 0.00in /  0mm 0 W/m2
21:09 54.7 °F /  12.6 °C 47.9 °F /  8.8 °C 30.33in /  1027hPa Calm     77.7% 0.00in /  0mm 0 W/m2
21:14 54.5 °F /  12.5 °C 47.9 °F /  8.8 °C 30.32in /  1026.6hPa Calm     78.5% 0.00in /  0mm 0 W/m2
21:19 54.2 °F /  12.3 °C 47.9 °F /  8.8 °C 30.32in /  1026.6hPa Calm     79% 0.00in /  0mm 0 W/m2
21:24 54.1 °F /  12.3 °C 48 °F /  8.9 °C 30.32in /  1026.6hPa Calm     80% 0.00in /  0mm 0 W/m2
21:29 53.8 °F /  12.1 °C 47.8 °F /  8.8 °C 30.32in /  1026.6hPa Calm     80% 0.00in /  0mm 0 W/m2
21:34 53.6 °F /  12 °C 47.7 °F /  8.7 °C 30.32in /  1026.6hPa Calm     80.4% 0.00in /  0mm 0 W/m2
21:39 53.3 °F /  11.8 °C 47.7 °F /  8.7 °C 30.32in /  1026.6hPa Calm     81% 0.00in /  0mm 0 W/m2
21:44 53.2 °F /  11.8 °C 47.8 °F /  8.8 °C 30.32in /  1026.6hPa Calm     82% 0.00in /  0mm 0 W/m2
21:49 53.1 °F /  11.7 °C 48.1 °F /  8.9 °C 30.32in /  1026.6hPa Calm     83.2% 0.00in /  0mm 0 W/m2
21:54 53.2 °F /  11.8 °C 48.5 °F /  9.2 °C 30.32in /  1026.6hPa Calm     84% 0.00in /  0mm 0 W/m2
21:59 53.3 °F /  11.8 °C 48.6 °F /  9.2 °C 30.32in /  1026.6hPa Calm   2mph /  3.2km/h 84% 0.00in /  0mm 0 W/m2
22:04 53.3 °F /  11.8 °C 48.6 °F /  9.2 °C 30.32in /  1026.6hPa Calm   2mph /  3.2km/h 84% 0.00in /  0mm 0 W/m2
22:09 53.5 °F /  11.9 °C 49 °F /  9.4 °C 30.32in /  1026.6hPa South 0.1mph /  0.2km/h 2mph /  3.2km/h 84.7% 0.00in /  0mm 0 W/m2
22:14 53.6 °F /  12 °C 49 °F /  9.4 °C 30.32in /  1026.6hPa Calm   2mph /  3.2km/h 84.2% 0.00in /  0mm 0 W/m2
22:19 53.6 °F /  12 °C 48.9 °F /  9.4 °C 30.32in /  1026.6hPa South 0.1mph /  0.2km/h 3mph /  4.8km/h 84% 0.00in /  0mm 0 W/m2
22:24 53.5 °F /  11.9 °C 48.8 °F /  9.3 °C 30.32in /  1026.6hPa Calm   3mph /  4.8km/h 84% 0.00in /  0mm 0 W/m2
22:29 53.4 °F /  11.9 °C 48.7 °F /  9.3 °C 30.32in /  1026.6hPa Calm   3mph /  4.8km/h 84% 0.00in /  0mm 0 W/m2
22:34 53.3 °F /  11.8 °C 48.6 °F /  9.2 °C 30.32in /  1026.6hPa Calm   3mph /  4.8km/h 84.3% 0.00in /  0mm 0 W/m2
22:39 53.1 °F /  11.7 °C 48.7 °F /  9.3 °C 30.32in /  1026.6hPa Calm     85% 0.00in /  0mm 0 W/m2
22:44 52.9 °F /  11.6 °C 48.5 °F /  9.2 °C 30.32in /  1026.6hPa Calm     85% 0.00in /  0mm 0 W/m2
22:49 52.7 °F /  11.5 °C 48.3 °F /  9.1 °C 30.32in /  1026.6hPa Calm     85% 0.00in /  0mm 0 W/m2
22:54 52.4 °F /  11.3 °C 48.1 °F /  8.9 °C 30.32in /  1026.6hPa Calm     85% 0.00in /  0mm 0 W/m2
22:59 52.2 °F /  11.2 °C 47.9 °F /  8.8 °C 30.32in /  1026.6hPa Calm     85.3% 0.00in /  0mm 0 W/m2
23:04 51.9 °F /  11.1 °C 47.8 °F /  8.8 °C 30.33in /  1027hPa Calm     85.8% 0.00in /  0mm 0 W/m2
23:09 51.7 °F /  10.9 °C 47.7 °F /  8.7 °C 30.33in /  1027hPa Calm     86% 0.00in /  0mm 0 W/m2
23:14 51.5 °F /  10.8 °C 47.4 °F /  8.6 °C 30.33in /  1027hPa Calm     86% 0.00in /  0mm 0 W/m2
23:19 51.2 °F /  10.7 °C 47.5 °F /  8.6 °C 30.33in /  1027hPa Calm     87% 0.00in /  0mm 0 W/m2
23:24 51.1 °F /  10.6 °C 47.3 °F /  8.5 °C 30.33in /  1027hPa Calm     87% 0.00in /  0mm 0 W/m2
23:29 50.9 °F /  10.5 °C 47.2 °F /  8.4 °C 30.33in /  1027hPa Calm     87% 0.00in /  0mm 0 W/m2
23:34 50.7 °F /  10.4 °C 47.1 °F /  8.4 °C 30.33in /  1027hPa Calm     87.2% 0.00in /  0mm 0 W/m2
23:39 50.6 °F /  10.3 °C 47 °F /  8.3 °C 30.33in /  1027hPa Calm     87.4% 0.00in /  0mm 0 W/m2
23:44 50.4 °F /  10.2 °C 47 °F /  8.3 °C 30.33in /  1027hPa Calm     88% 0.00in /  0mm 0 W/m2
23:49 50.2 °F /  10.1 °C 46.8 °F /  8.2 °C 30.34in /  1027.3hPa Calm     88% 0.00in /  0mm 0 W/m2
23:54 50.1 °F /  10.1 °C 46.8 °F /  8.2 °C 30.34in /  1027.3hPa Calm     88.2% 0.00in /  0mm 0 W/m2
23:59 50.1 °F /  10.1 °C 46.9 °F /  8.3 °C 30.34in /  1027.3hPa Calm     89% 0.00in /  0mm 0 W/m2
Hartford County Weather
Compliments of Weather Underground - 2 mb